Kinrooi, Belgium
Current Conditions -  °F | °C
As of 4:55 AM on Friday 28 Nov 2014 (Local Time) from EBBL Reporting Station
Broken Clouds Broken Clouds  
Wind Chill: 39°   Ceiling: 9000
Heat Index: 43°   Visibility: 3mi
Dew Point: 41°   Wind: 7mph
Humidity: 93%   Direction: 100°E
Pressure: 29.71"   Gusts: NA
Location:  51.15°N, 5.74°E
Report Text: EBBL 280355Z AUTO 10006KT 5000 SCT049/// BKN090/// 06/05 Q1006 WHT
Loading
Personal Weather Stations






























Interactive Weather Map New forecast layout! Learn more

10-Day Weather Forecast

Advertisements
Track Severe Weather on mobile